Pagina principale
METAR-TAF:

METAR-TAF

Aeroporti :

Memmingen, Germania

latitudine: 47-59-33N, longitudine: 10-14-37E, altezza: 633 m

Osservazione

Il bollettino è stato emesso 38 minuti fa, alle 19:50 UTC
Vento 4 kt da nord-est
Temperature 18°C
Umidità 88%
Pressione 1020 hPa
Visibilità 10 km o più
nessuna nube inferiore a 1500 m e nessun cumulonembo

METAR: EDJA 161950Z 04004KT CAVOK 18/16 Q1020

Ora: 22:28 (20:28 UTC)

Previsione

Il bollettino è stato emesso 3 ore e 28 minuti fa, alle 17:00 UTC
Previsione valida dal 16 alle 18 UTC al 17 alle 03 UTC
Vento 5 kt da ovest/sud-ovest
Visibilità 10 km o più
Nuvoloso ad un'altezza di 4500 ft

TAF: EDJA 161700Z 1618/1703 25005KT 9999 BKN045

Osservazioni e previsioni meteorologiche di più di 4000 aeroporti (messaggi METAR e TAF).

Le stazioni disponibili sono rappresentate dai dischi gialli e rossi sulla carta.

Puntare il mouse per vedere il nome della stazione.

Clicca sopra per visualizzare le osservazioni e previsioni meteorologiche.

Per cambiare la mappa : fare clic sui pulsanti verdi con una croce nera per ingrandire, il pulsante verde con un trattino per diminuire, o sulla freccia verde per le mappe adiacenti.


METAR-TAF: